sensor_id;sensor_type;location;lat;lon;timestamp;P1;durP1;ratioP1;P2;durP2;ratioP2
5257;SDS011;2651;51.594;9.928;2023-12-14T00:00:30;11.07;;;6.18;;
5257;SDS011;2651;51.594;9.928;2023-12-14T00:01:32;12.70;;;5.15;;
5257;SDS011;2651;51.594;9.928;2023-12-14T00:02:34;13.20;;;6.15;;
5257;SDS011;2651;51.594;9.928;2023-12-14T00:03:36;12.85;;;6.30;;
5257;SDS011;2651;51.594;9.928;2023-12-14T00:04:38;10.88;;;5.40;;
5257;SDS011;2651;51.594;9.928;2023-12-14T00:05:41;12.38;;;5.88;;
5257;SDS011;2651;51.594;9.928;2023-12-14T00:06:43;10.60;;;4.88;;
5257;SDS011;2651;51.594;9.928;2023-12-14T00:07:45;15.95;;;6.15;;
5257;SDS011;2651;51.594;9.928;2023-12-14T00:08:47;12.40;;;5.95;;
5257;SDS011;2651;51.594;9.928;2023-12-14T00:09:48;10.65;;;5.47;;
5257;SDS011;2651;51.594;9.928;2023-12-14T00:10:50;12.10;;;5.75;;
5257;SDS011;2651;51.594;9.928;2023-12-14T00:11:52;12.05;;;5.90;;
5257;SDS011;2651;51.594;9.928;2023-12-14T00:12:53;11.50;;;6.03;;
5257;SDS011;2651;51.594;9.928;2023-12-14T00:13:56;17.77;;;6.95;;
5257;SDS011;2651;51.594;9.928;2023-12-14T00:14:58;13.32;;;5.93;;
5257;SDS011;2651;51.594;9.928;2023-12-14T00:16:00;12.60;;;6.20;;
5257;SDS011;2651;51.594;9.928;2023-12-14T00:17:02;11.68;;;5.60;;
5257;SDS011;2651;51.594;9.928;2023-12-14T00:18:04;9.57;;;5.75;;
5257;SDS011;2651;51.594;9.928;2023-12-14T00:19:07;14.35;;;6.68;;
5257;SDS011;2651;51.594;9.928;2023-12-14T00:20:09;13.00;;;6.30;;
5257;SDS011;2651;51.594;9.928;2023-12-14T00:21:10;12.57;;;5.68;;
5257;SDS011;2651;51.594;9.928;2023-12-14T00:22:12;10.45;;;5.90;;
5257;SDS011;2651;51.594;9.928;2023-12-14T00:23:14;11.00;;;6.68;;
5257;SDS011;2651;51.594;9.928;2023-12-14T00:24:16;12.75;;;5.57;;
5257;SDS011;2651;51.594;9.928;2023-12-14T00:25:17;11.68;;;6.47;;
5257;SDS011;2651;51.594;9.928;2023-12-14T00:26:19;14.50;;;6.53;;
5257;SDS011;2651;51.594;9.928;2023-12-14T00:27:21;12.07;;;6.40;;
5257;SDS011;2651;51.594;9.928;2023-12-14T00:28:23;11.13;;;6.50;;
5257;SDS011;2651;51.594;9.928;2023-12-14T00:29:29;11.85;;;6.43;;
5257;SDS011;2651;51.594;9.928;2023-12-14T00:30:30;8.52;;;6.00;;
5257;SDS011;2651;51.594;9.928;2023-12-14T00:31:32;12.45;;;6.30;;
5257;SDS011;2651;51.594;9.928;2023-12-14T00:32:34;12.93;;;6.50;;
5257;SDS011;2651;51.594;9.928;2023-12-14T00:33:36;9.90;;;5.57;;
5257;SDS011;2651;51.594;9.928;2023-12-14T00:34:38;10.98;;;5.85;;
5257;SDS011;2651;51.594;9.928;2023-12-14T00:35:41;13.40;;;6.45;;
5257;SDS011;2651;51.594;9.928;2023-12-14T00:36:43;11.13;;;6.00;;
5257;SDS011;2651;51.594;9.928;2023-12-14T00:37:44;13.23;;;6.88;;
5257;SDS011;2651;51.594;9.928;2023-12-14T00:38:46;13.63;;;6.22;;
5257;SDS011;2651;51.594;9.928;2023-12-14T00:39:48;14.55;;;6.85;;
5257;SDS011;2651;51.594;9.928;2023-12-14T00:40:50;10.32;;;6.28;;
5257;SDS011;2651;51.594;9.928;2023-12-14T00:41:51;16.00;;;6.85;;
5257;SDS011;2651;51.594;9.928;2023-12-14T00:42:53;14.68;;;5.82;;
5257;SDS011;2651;51.594;9.928;2023-12-14T00:43:55;10.38;;;6.43;;
5257;SDS011;2651;51.594;9.928;2023-12-14T00:44:56;14.30;;;6.07;;
5257;SDS011;2651;51.594;9.928;2023-12-14T00:45:58;18.20;;;6.70;;
5257;SDS011;2651;51.594;9.928;2023-12-14T00:46:59;10.95;;;5.65;;
5257;SDS011;2651;51.594;9.928;2023-12-14T00:48:02;11.15;;;5.97;;
5257;SDS011;2651;51.594;9.928;2023-12-14T00:49:04;12.57;;;5.70;;
5257;SDS011;2651;51.594;9.928;2023-12-14T00:50:06;14.48;;;6.95;;
5257;SDS011;2651;51.594;9.928;2023-12-14T00:51:08;10.77;;;6.35;;
5257;SDS011;2651;51.594;9.928;2023-12-14T00:52:09;10.77;;;5.80;;
5257;SDS011;2651;51.594;9.928;2023-12-14T00:53:11;11.25;;;5.32;;
5257;SDS011;2651;51.594;9.928;2023-12-14T00:54:13;9.98;;;6.03;;
5257;SDS011;2651;51.594;9.928;2023-12-14T00:55:15;13.50;;;5.47;;
5257;SDS011;2651;51.594;9.928;2023-12-14T00:56:16;13.45;;;6.13;;
5257;SDS011;2651;51.594;9.928;2023-12-14T00:57:21;14.63;;;5.93;;
5257;SDS011;2651;51.594;9.928;2023-12-14T00:58:22;10.60;;;5.97;;
5257;SDS011;2651;51.594;9.928;2023-12-14T00:59:24;10.20;;;5.90;;
5257;SDS011;2651;51.594;9.928;2023-12-14T01:00:26;11.20;;;5.60;;
5257;SDS011;2651;51.594;9.928;2023-12-14T01:01:27;8.85;;;4.72;;
5257;SDS011;2651;51.594;9.928;2023-12-14T01:02:29;11.90;;;5.80;;
5257;SDS011;2651;51.594;9.928;2023-12-14T01:03:31;15.13;;;6.72;;
5257;SDS011;2651;51.594;9.928;2023-12-14T01:04:33;12.63;;;6.13;;
5257;SDS011;2651;51.594;9.928;2023-12-14T01:05:35;10.40;;;5.63;;
5257;SDS011;2651;51.594;9.928;2023-12-14T01:06:37;11.35;;;5.78;;
5257;SDS011;2651;51.594;9.928;2023-12-14T01:07:38;7.93;;;4.63;;
5257;SDS011;2651;51.594;9.928;2023-12-14T01:08:40;9.40;;;5.47;;
5257;SDS011;2651;51.594;9.928;2023-12-14T01:09:42;15.57;;;6.55;;
5257;SDS011;2651;51.594;9.928;2023-12-14T01:10:44;12.52;;;5.32;;
5257;SDS011;2651;51.594;9.928;2023-12-14T01:11:46;12.30;;;6.18;;
5257;SDS011;2651;51.594;9.928;2023-12-14T01:12:47;11.73;;;5.65;;
5257;SDS011;2651;51.594;9.928;2023-12-14T01:13:49;14.10;;;6.82;;
5257;SDS011;2651;51.594;9.928;2023-12-14T01:14:51;11.23;;;5.80;;
5257;SDS011;2651;51.594;9.928;2023-12-14T01:15:52;8.48;;;4.95;;
5257;SDS011;2651;51.594;9.928;2023-12-14T01:16:54;10.05;;;5.35;;
5257;SDS011;2651;51.594;9.928;2023-12-14T01:17:56;12.90;;;5.95;;
5257;SDS011;2651;51.594;9.928;2023-12-14T01:18:57;9.85;;;5.28;;
5257;SDS011;2651;51.594;9.928;2023-12-14T01:20:00;12.73;;;5.55;;
5257;SDS011;2651;51.594;9.928;2023-12-14T01:21:02;13.05;;;6.00;;
5257;SDS011;2651;51.594;9.928;2023-12-14T01:22:04;21.83;;;6.05;;
5257;SDS011;2651;51.594;9.928;2023-12-14T01:23:05;13.00;;;6.00;;
5257;SDS011;2651;51.594;9.928;2023-12-14T01:24:07;10.60;;;5.53;;
5257;SDS011;2651;51.594;9.928;2023-12-14T01:25:09;13.27;;;6.28;;
5257;SDS011;2651;51.594;9.928;2023-12-14T01:26:10;12.00;;;5.53;;
5257;SDS011;2651;51.594;9.928;2023-12-14T01:27:12;7.80;;;4.80;;
5257;SDS011;2651;51.594;9.928;2023-12-14T01:28:15;10.13;;;5.35;;
5257;SDS011;2651;51.594;9.928;2023-12-14T01:29:16;9.25;;;5.07;;
5257;SDS011;2651;51.594;9.928;2023-12-14T01:30:18;11.02;;;5.78;;
5257;SDS011;2651;51.594;9.928;2023-12-14T01:31:20;11.73;;;6.10;;
5257;SDS011;2651;51.594;9.928;2023-12-14T01:32:25;7.82;;;5.63;;
5257;SDS011;2651;51.594;9.928;2023-12-14T01:33:27;9.98;;;4.95;;
5257;SDS011;2651;51.594;9.928;2023-12-14T01:34:29;10.98;;;5.20;;
5257;SDS011;2651;51.594;9.928;2023-12-14T01:35:30;7.75;;;4.72;;
5257;SDS011;2651;51.594;9.928;2023-12-14T01:36:32;5.57;;;4.28;;
5257;SDS011;2651;51.594;9.928;2023-12-14T01:37:34;8.77;;;4.70;;
5257;SDS011;2651;51.594;9.928;2023-12-14T01:38:35;8.38;;;4.90;;
5257;SDS011;2651;51.594;9.928;2023-12-14T01:39:37;9.13;;;5.40;;
5257;SDS011;2651;51.594;9.928;2023-12-14T01:40:38;6.55;;;4.50;;
5257;SDS011;2651;51.594;9.928;2023-12-14T01:41:40;8.35;;;4.80;;
5257;SDS011;2651;51.594;9.928;2023-12-14T01:42:42;8.65;;;4.82;;
5257;SDS011;2651;51.594;9.928;2023-12-14T01:43:44;9.52;;;4.78;;
5257;SDS011;2651;51.594;9.928;2023-12-14T01:44:46;8.23;;;4.72;;
5257;SDS011;2651;51.594;9.928;2023-12-14T01:45:47;8.55;;;4.20;;
5257;SDS011;2651;51.594;9.928;2023-12-14T01:46:49;6.32;;;4.28;;
5257;SDS011;2651;51.594;9.928;2023-12-14T01:47:51;5.45;;;4.18;;
5257;SDS011;2651;51.594;9.928;2023-12-14T01:48:53;5.47;;;3.72;;
5257;SDS011;2651;51.594;9.928;2023-12-14T01:49:54;8.80;;;4.07;;
5257;SDS011;2651;51.594;9.928;2023-12-14T01:50:56;5.03;;;3.75;;
5257;SDS011;2651;51.594;9.928;2023-12-14T01:51:59;6.32;;;3.75;;
5257;SDS011;2651;51.594;9.928;2023-12-14T01:53:01;9.20;;;3.15;;
5257;SDS011;2651;51.594;9.928;2023-12-14T01:54:02;4.97;;;3.70;;
5257;SDS011;2651;51.594;9.928;2023-12-14T01:55:04;6.25;;;3.78;;
5257;SDS011;2651;51.594;9.928;2023-12-14T01:56:06;3.53;;;2.83;;
5257;SDS011;2651;51.594;9.928;2023-12-14T01:57:09;5.40;;;3.13;;
5257;SDS011;2651;51.594;9.928;2023-12-14T01:58:10;4.28;;;2.42;;
5257;SDS011;2651;51.594;9.928;2023-12-14T01:59:12;2.60;;;2.20;;
5257;SDS011;2651;51.594;9.928;2023-12-14T02:00:18;2.22;;;2.03;;
5257;SDS011;2651;51.594;9.928;2023-12-14T02:01:44;2.53;;;1.80;;
5257;SDS011;2651;51.594;9.928;2023-12-14T02:02:46;2.17;;;1.98;;
5257;SDS011;2651;51.594;9.928;2023-12-14T02:03:49;1.45;;;1.35;;
5257;SDS011;2651;51.594;9.928;2023-12-14T02:04:53;1.73;;;1.63;;
5257;SDS011;2651;51.594;9.928;2023-12-14T02:05:55;1.88;;;1.77;;
5257;SDS011;2651;51.594;9.928;2023-12-14T02:06:59;2.08;;;1.45;;
5257;SDS011;2651;51.594;9.928;2023-12-14T02:08:01;1.77;;;1.67;;
5257;SDS011;2651;51.594;9.928;2023-12-14T02:09:03;2.17;;;1.83;;
5257;SDS011;2651;51.594;9.928;2023-12-14T02:10:05;2.00;;;1.80;;
5257;SDS011;2651;51.594;9.928;2023-12-14T02:11:07;2.20;;;2.00;;
5257;SDS011;2651;51.594;9.928;2023-12-14T02:12:09;2.08;;;1.98;;
5257;SDS011;2651;51.594;9.928;2023-12-14T02:13:10;2.40;;;2.05;;
5257;SDS011;2651;51.594;9.928;2023-12-14T02:14:12;2.90;;;2.08;;
5257;SDS011;2651;51.594;9.928;2023-12-14T02:15:14;2.90;;;1.95;;
5257;SDS011;2651;51.594;9.928;2023-12-14T02:16:16;2.13;;;1.98;;
5257;SDS011;2651;51.594;9.928;2023-12-14T02:17:18;2.67;;;2.47;;
5257;SDS011;2651;51.594;9.928;2023-12-14T02:18:19;2.28;;;2.08;;
5257;SDS011;2651;51.594;9.928;2023-12-14T02:19:21;4.50;;;2.60;;
5257;SDS011;2651;51.594;9.928;2023-12-14T02:20:23;2.97;;;2.17;;
5257;SDS011;2651;51.594;9.928;2023-12-14T02:21:24;2.35;;;2.10;;
5257;SDS011;2651;51.594;9.928;2023-12-14T02:22:26;2.95;;;2.38;;
5257;SDS011;2651;51.594;9.928;2023-12-14T02:23:28;2.38;;;2.17;;
5257;SDS011;2651;51.594;9.928;2023-12-14T02:24:29;2.10;;;2.00;;
5257;SDS011;2651;51.594;9.928;2023-12-14T02:25:31;2.58;;;2.17;;
5257;SDS011;2651;51.594;9.928;2023-12-14T02:26:33;2.03;;;1.83;;
5257;SDS011;2651;51.594;9.928;2023-12-14T02:27:35;2.33;;;2.13;;
5257;SDS011;2651;51.594;9.928;2023-12-14T02:28:36;2.40;;;2.20;;
5257;SDS011;2651;51.594;9.928;2023-12-14T02:29:38;2.45;;;2.00;;
5257;SDS011;2651;51.594;9.928;2023-12-14T02:30:41;2.65;;;1.80;;
5257;SDS011;2651;51.594;9.928;2023-12-14T02:31:43;2.97;;;2.10;;
5257;SDS011;2651;51.594;9.928;2023-12-14T02:32:44;2.25;;;2.15;;
5257;SDS011;2651;51.594;9.928;2023-12-14T02:33:46;2.42;;;2.20;;
5257;SDS011;2651;51.594;9.928;2023-12-14T02:34:48;7.22;;;1.88;;
5257;SDS011;2651;51.594;9.928;2023-12-14T02:35:50;1.90;;;1.80;;
5257;SDS011;2651;51.594;9.928;2023-12-14T02:36:52;2.45;;;2.25;;
5257;SDS011;2651;51.594;9.928;2023-12-14T02:37:53;2.30;;;1.92;;
5257;SDS011;2651;51.594;9.928;2023-12-14T02:38:55;3.28;;;2.05;;
5257;SDS011;2651;51.594;9.928;2023-12-14T02:39:57;1.88;;;1.77;;
5257;SDS011;2651;51.594;9.928;2023-12-14T02:40:59;2.17;;;1.95;;
5257;SDS011;2651;51.594;9.928;2023-12-14T02:42:02;2.20;;;1.92;;
5257;SDS011;2651;51.594;9.928;2023-12-14T02:43:04;1.90;;;1.80;;
5257;SDS011;2651;51.594;9.928;2023-12-14T02:44:05;2.22;;;2.00;;
5257;SDS011;2651;51.594;9.928;2023-12-14T02:45:07;2.10;;;2.00;;
5257;SDS011;2651;51.594;9.928;2023-12-14T02:46:09;2.00;;;1.90;;
5257;SDS011;2651;51.594;9.928;2023-12-14T02:47:13;2.13;;;1.92;;
5257;SDS011;2651;51.594;9.928;2023-12-14T02:48:15;1.65;;;1.55;;
5257;SDS011;2651;51.594;9.928;2023-12-14T02:49:17;1.90;;;1.80;;
5257;SDS011;2651;51.594;9.928;2023-12-14T02:50:18;3.53;;;2.22;;
5257;SDS011;2651;51.594;9.928;2023-12-14T02:51:20;1.92;;;1.83;;
5257;SDS011;2651;51.594;9.928;2023-12-14T02:52:22;2.40;;;1.80;;
5257;SDS011;2651;51.594;9.928;2023-12-14T02:53:24;2.70;;;2.00;;
5257;SDS011;2651;51.594;9.928;2023-12-14T02:54:25;2.47;;;2.28;;
5257;SDS011;2651;51.594;9.928;2023-12-14T02:55:27;2.00;;;1.77;;
5257;SDS011;2651;51.594;9.928;2023-12-14T02:56:29;1.77;;;1.67;;
5257;SDS011;2651;51.594;9.928;2023-12-14T02:57:31;2.33;;;2.13;;
5257;SDS011;2651;51.594;9.928;2023-12-14T02:58:32;2.13;;;2.00;;
5257;SDS011;2651;51.594;9.928;2023-12-14T02:59:34;2.03;;;1.92;;
5257;SDS011;2651;51.594;9.928;2023-12-14T03:00:36;5.55;;;2.30;;
5257;SDS011;2651;51.594;9.928;2023-12-14T03:01:37;3.10;;;2.20;;
5257;SDS011;2651;51.594;9.928;2023-12-14T03:02:40;3.22;;;2.13;;
5257;SDS011;2651;51.594;9.928;2023-12-14T03:03:42;2.20;;;2.00;;
5257;SDS011;2651;51.594;9.928;2023-12-14T03:04:43;2.40;;;2.20;;
5257;SDS011;2651;51.594;9.928;2023-12-14T03:05:45;2.85;;;2.65;;
5257;SDS011;2651;51.594;9.928;2023-12-14T03:06:47;2.85;;;2.58;;
5257;SDS011;2651;51.594;9.928;2023-12-14T03:07:49;2.53;;;2.13;;
5257;SDS011;2651;51.594;9.928;2023-12-14T03:08:50;2.42;;;1.90;;
5257;SDS011;2651;51.594;9.928;2023-12-14T03:09:52;2.50;;;2.35;;
5257;SDS011;2651;51.594;9.928;2023-12-14T03:10:54;2.33;;;2.10;;
5257;SDS011;2651;51.594;9.928;2023-12-14T03:11:55;2.15;;;2.05;;
5257;SDS011;2651;51.594;9.928;2023-12-14T03:12:57;3.47;;;2.40;;
5257;SDS011;2651;51.594;9.928;2023-12-14T03:13:59;2.90;;;2.10;;
5257;SDS011;2651;51.594;9.928;2023-12-14T03:15:00;2.33;;;2.03;;
5257;SDS011;2651;51.594;9.928;2023-12-14T03:16:02;2.88;;;2.38;;
5257;SDS011;2651;51.594;9.928;2023-12-14T03:17:05;2.60;;;2.40;;
5257;SDS011;2651;51.594;9.928;2023-12-14T03:18:08;2.42;;;2.22;;
5257;SDS011;2651;51.594;9.928;2023-12-14T03:19:11;3.38;;;2.55;;
5257;SDS011;2651;51.594;9.928;2023-12-14T03:20:13;3.13;;;2.88;;
5257;SDS011;2651;51.594;9.928;2023-12-14T03:21:15;2.92;;;2.60;;
5257;SDS011;2651;51.594;9.928;2023-12-14T03:22:17;7.00;;;2.90;;
5257;SDS011;2651;51.594;9.928;2023-12-14T03:23:19;4.63;;;3.63;;
5257;SDS011;2651;51.594;9.928;2023-12-14T03:24:20;5.50;;;4.10;;
5257;SDS011;2651;51.594;9.928;2023-12-14T03:25:22;8.88;;;5.95;;
5257;SDS011;2651;51.594;9.928;2023-12-14T03:26:24;11.80;;;7.85;;
5257;SDS011;2651;51.594;9.928;2023-12-14T03:27:25;3.55;;;2.90;;
5257;SDS011;2651;51.594;9.928;2023-12-14T03:28:27;4.15;;;3.60;;
5257;SDS011;2651;51.594;9.928;2023-12-14T03:29:29;8.50;;;5.35;;
5257;SDS011;2651;51.594;9.928;2023-12-14T03:30:31;6.47;;;4.47;;
5257;SDS011;2651;51.594;9.928;2023-12-14T03:31:33;3.97;;;3.05;;
5257;SDS011;2651;51.594;9.928;2023-12-14T03:32:35;3.13;;;2.92;;
5257;SDS011;2651;51.594;9.928;2023-12-14T03:33:38;5.70;;;4.15;;
5257;SDS011;2651;51.594;9.928;2023-12-14T03:34:41;17.42;;;10.48;;
5257;SDS011;2651;51.594;9.928;2023-12-14T03:35:42;11.75;;;7.90;;
5257;SDS011;2651;51.594;9.928;2023-12-14T03:36:44;8.77;;;5.10;;
5257;SDS011;2651;51.594;9.928;2023-12-14T03:37:46;4.63;;;4.15;;
5257;SDS011;2651;51.594;9.928;2023-12-14T03:38:48;3.47;;;3.08;;
5257;SDS011;2651;51.594;9.928;2023-12-14T03:39:49;4.00;;;2.33;;
5257;SDS011;2651;51.594;9.928;2023-12-14T03:40:52;11.60;;;7.45;;
5257;SDS011;2651;51.594;9.928;2023-12-14T03:41:53;3.53;;;3.22;;
5257;SDS011;2651;51.594;9.928;2023-12-14T03:42:55;5.60;;;4.60;;
5257;SDS011;2651;51.594;9.928;2023-12-14T03:43:57;4.10;;;2.90;;
5257;SDS011;2651;51.594;9.928;2023-12-14T03:44:59;4.40;;;4.00;;
5257;SDS011;2651;51.594;9.928;2023-12-14T03:46:00;3.42;;;2.78;;
5257;SDS011;2651;51.594;9.928;2023-12-14T03:47:02;5.80;;;4.53;;
5257;SDS011;2651;51.594;9.928;2023-12-14T03:48:04;3.75;;;2.58;;
5257;SDS011;2651;51.594;9.928;2023-12-14T03:49:06;3.42;;;2.95;;
5257;SDS011;2651;51.594;9.928;2023-12-14T03:50:10;2.95;;;2.30;;
5257;SDS011;2651;51.594;9.928;2023-12-14T03:51:13;2.70;;;2.40;;
5257;SDS011;2651;51.594;9.928;2023-12-14T03:52:14;1.90;;;1.80;;
5257;SDS011;2651;51.594;9.928;2023-12-14T03:53:16;6.07;;;3.85;;
5257;SDS011;2651;51.594;9.928;2023-12-14T03:54:18;10.85;;;6.72;;
5257;SDS011;2651;51.594;9.928;2023-12-14T03:55:20;3.35;;;2.53;;
5257;SDS011;2651;51.594;9.928;2023-12-14T03:56:22;1.60;;;1.50;;
5257;SDS011;2651;51.594;9.928;2023-12-14T03:58:25;1.73;;;1.63;;
5257;SDS011;2651;51.594;9.928;2023-12-14T03:59:27;2.33;;;1.48;;
5257;SDS011;2651;51.594;9.928;2023-12-14T04:00:29;2.63;;;2.42;;
5257;SDS011;2651;51.594;9.928;2023-12-14T04:01:30;2.75;;;2.60;;
5257;SDS011;2651;51.594;9.928;2023-12-14T04:02:32;3.22;;;1.98;;
5257;SDS011;2651;51.594;9.928;2023-12-14T04:03:34;1.60;;;1.50;;
5257;SDS011;2651;51.594;9.928;2023-12-14T04:04:36;1.40;;;1.30;;
5257;SDS011;2651;51.594;9.928;2023-12-14T04:05:38;1.55;;;1.30;;
5257;SDS011;2651;51.594;9.928;2023-12-14T04:06:40;1.02;;;0.93;;
5257;SDS011;2651;51.594;9.928;2023-12-14T04:07:42;1.95;;;1.38;;
5257;SDS011;2651;51.594;9.928;2023-12-14T04:08:44;1.38;;;1.27;;
5257;SDS011;2651;51.594;9.928;2023-12-14T04:09:46;2.13;;;1.35;;
5257;SDS011;2651;51.594;9.928;2023-12-14T04:10:49;1.33;;;1.23;;
5257;SDS011;2651;51.594;9.928;2023-12-14T04:11:51;1.05;;;1.05;;
5257;SDS011;2651;51.594;9.928;2023-12-14T04:12:53;1.10;;;1.10;;
5257;SDS011;2651;51.594;9.928;2023-12-14T04:13:55;1.00;;;1.00;;
5257;SDS011;2651;51.594;9.928;2023-12-14T04:14:57;0.95;;;0.95;;
5257;SDS011;2651;51.594;9.928;2023-12-14T04:16:00;3.05;;;1.27;;
5257;SDS011;2651;51.594;9.928;2023-12-14T04:17:04;1.10;;;1.10;;
5257;SDS011;2651;51.594;9.928;2023-12-14T04:18:09;1.13;;;1.13;;
5257;SDS011;2651;51.594;9.928;2023-12-14T04:19:11;1.33;;;1.20;;
5257;SDS011;2651;51.594;9.928;2023-12-14T04:20:13;1.13;;;1.13;;
5257;SDS011;2651;51.594;9.928;2023-12-14T04:21:17;1.33;;;1.23;;
5257;SDS011;2651;51.594;9.928;2023-12-14T04:22:29;2.28;;;1.50;;
5257;SDS011;2651;51.594;9.928;2023-12-14T04:23:31;1.33;;;1.33;;
5257;SDS011;2651;51.594;9.928;2023-12-14T04:24:33;1.33;;;1.27;;
5257;SDS011;2651;51.594;9.928;2023-12-14T04:25:35;1.50;;;1.23;;
5257;SDS011;2651;51.594;9.928;2023-12-14T04:26:37;0.93;;;0.90;;
5257;SDS011;2651;51.594;9.928;2023-12-14T04:27:41;1.08;;;1.08;;
5257;SDS011;2651;51.594;9.928;2023-12-14T04:28:46;0.82;;;0.82;;
5257;SDS011;2651;51.594;9.928;2023-12-14T04:29:48;1.00;;;1.00;;
5257;SDS011;2651;51.594;9.928;2023-12-14T04:30:50;1.25;;;1.20;;
5257;SDS011;2651;51.594;9.928;2023-12-14T04:31:54;1.30;;;1.20;;
5257;SDS011;2651;51.594;9.928;2023-12-14T04:32:56;1.90;;;1.20;;
5257;SDS011;2651;51.594;9.928;2023-12-14T04:33:57;1.67;;;1.58;;
5257;SDS011;2651;51.594;9.928;2023-12-14T04:35:00;0.90;;;0.90;;
5257;SDS011;2651;51.594;9.928;2023-12-14T04:36:03;1.85;;;1.40;;
5257;SDS011;2651;51.594;9.928;2023-12-14T04:37:07;1.13;;;1.13;;
5257;SDS011;2651;51.594;9.928;2023-12-14T04:38:12;1.05;;;1.00;;
5257;SDS011;2651;51.594;9.928;2023-12-14T04:39:14;6.15;;;1.48;;
5257;SDS011;2651;51.594;9.928;2023-12-14T04:40:16;1.30;;;1.20;;
5257;SDS011;2651;51.594;9.928;2023-12-14T04:41:18;2.35;;;1.30;;
5257;SDS011;2651;51.594;9.928;2023-12-14T04:42:20;1.40;;;1.30;;
5257;SDS011;2651;51.594;9.928;2023-12-14T04:43:22;1.33;;;1.23;;
5257;SDS011;2651;51.594;9.928;2023-12-14T04:44:31;1.33;;;1.23;;
5257;SDS011;2651;51.594;9.928;2023-12-14T04:45:33;1.77;;;1.67;;
5257;SDS011;2651;51.594;9.928;2023-12-14T04:46:34;1.20;;;1.10;;
5257;SDS011;2651;51.594;9.928;2023-12-14T04:47:36;1.75;;;1.65;;
5257;SDS011;2651;51.594;9.928;2023-12-14T04:48:38;1.15;;;1.05;;
5257;SDS011;2651;51.594;9.928;2023-12-14T04:49:40;2.03;;;1.58;;
5257;SDS011;2651;51.594;9.928;2023-12-14T04:50:43;1.60;;;1.50;;
5257;SDS011;2651;51.594;9.928;2023-12-14T04:51:45;1.50;;;1.40;;
5257;SDS011;2651;51.594;9.928;2023-12-14T04:52:46;1.50;;;1.40;;
5257;SDS011;2651;51.594;9.928;2023-12-14T04:53:51;2.55;;;1.60;;
5257;SDS011;2651;51.594;9.928;2023-12-14T04:54:53;1.35;;;1.25;;
5257;SDS011;2651;51.594;9.928;2023-12-14T04:55:55;1.58;;;1.48;;
5257;SDS011;2651;51.594;9.928;2023-12-14T04:56:57;1.70;;;1.60;;
5257;SDS011;2651;51.594;9.928;2023-12-14T04:58:09;2.70;;;2.15;;
5257;SDS011;2651;51.594;9.928;2023-12-14T04:59:12;1.45;;;1.23;;
5257;SDS011;2651;51.594;9.928;2023-12-14T05:00:16;5.75;;;3.40;;
5257;SDS011;2651;51.594;9.928;2023-12-14T05:01:20;14.50;;;8.60;;
5257;SDS011;2651;51.594;9.928;2023-12-14T05:02:26;4.07;;;2.88;;
5257;SDS011;2651;51.594;9.928;2023-12-14T05:03:28;6.60;;;4.45;;
5257;SDS011;2651;51.594;9.928;2023-12-14T05:04:30;2.65;;;2.45;;
5257;SDS011;2651;51.594;9.928;2023-12-14T05:05:32;7.63;;;5.60;;
5257;SDS011;2651;51.594;9.928;2023-12-14T05:06:33;5.07;;;4.50;;
5257;SDS011;2651;51.594;9.928;2023-12-14T05:07:36;19.45;;;11.38;;
5257;SDS011;2651;51.594;9.928;2023-12-14T05:08:38;14.05;;;8.63;;
5257;SDS011;2651;51.594;9.928;2023-12-14T05:09:39;14.68;;;9.55;;
5257;SDS011;2651;51.594;9.928;2023-12-14T05:10:41;9.75;;;6.22;;
5257;SDS011;2651;51.594;9.928;2023-12-14T05:11:43;6.32;;;5.30;;
5257;SDS011;2651;51.594;9.928;2023-12-14T05:12:46;11.98;;;7.25;;
5257;SDS011;2651;51.594;9.928;2023-12-14T05:13:48;6.35;;;3.92;;
5257;SDS011;2651;51.594;9.928;2023-12-14T05:14:55;6.05;;;4.97;;
5257;SDS011;2651;51.594;9.928;2023-12-14T05:16:17;4.88;;;3.70;;
5257;SDS011;2651;51.594;9.928;2023-12-14T05:17:23;6.07;;;4.65;;
5257;SDS011;2651;51.594;9.928;2023-12-14T05:18:25;5.45;;;4.10;;
5257;SDS011;2651;51.594;9.928;2023-12-14T05:19:27;6.50;;;5.80;;
5257;SDS011;2651;51.594;9.928;2023-12-14T05:20:29;4.93;;;3.30;;
5257;SDS011;2651;51.594;9.928;2023-12-14T05:21:33;2.40;;;2.05;;
5257;SDS011;2651;51.594;9.928;2023-12-14T05:22:35;4.32;;;3.47;;
5257;SDS011;2651;51.594;9.928;2023-12-14T05:23:37;4.28;;;3.33;;
5257;SDS011;2651;51.594;9.928;2023-12-14T05:24:41;2.22;;;2.10;;
5257;SDS011;2651;51.594;9.928;2023-12-14T05:25:45;1.85;;;1.75;;
5257;SDS011;2651;51.594;9.928;2023-12-14T05:26:48;2.78;;;2.40;;
5257;SDS011;2651;51.594;9.928;2023-12-14T05:27:50;13.68;;;1.90;;
5257;SDS011;2651;51.594;9.928;2023-12-14T05:28:54;2.10;;;2.00;;
5257;SDS011;2651;51.594;9.928;2023-12-14T05:29:56;2.67;;;2.35;;
5257;SDS011;2651;51.594;9.928;2023-12-14T05:31:00;2.92;;;2.08;;
5257;SDS011;2651;51.594;9.928;2023-12-14T05:32:04;2.05;;;1.67;;
5257;SDS011;2651;51.594;9.928;2023-12-14T05:33:06;1.67;;;1.58;;
5257;SDS011;2651;51.594;9.928;2023-12-14T05:34:14;2.05;;;1.45;;
5257;SDS011;2651;51.594;9.928;2023-12-14T05:35:17;2.38;;;2.28;;
5257;SDS011;2651;51.594;9.928;2023-12-14T05:36:19;2.35;;;1.85;;
5257;SDS011;2651;51.594;9.928;2023-12-14T05:37:21;3.10;;;2.00;;
5257;SDS011;2651;51.594;9.928;2023-12-14T05:38:22;2.05;;;1.95;;
5257;SDS011;2651;51.594;9.928;2023-12-14T05:39:27;1.85;;;1.45;;
5257;SDS011;2651;51.594;9.928;2023-12-14T05:40:35;1.80;;;1.70;;
5257;SDS011;2651;51.594;9.928;2023-12-14T05:41:41;1.55;;;1.45;;
5257;SDS011;2651;51.594;9.928;2023-12-14T05:42:46;1.88;;;1.77;;
5257;SDS011;2651;51.594;9.928;2023-12-14T05:43:55;2.08;;;1.98;;
5257;SDS011;2651;51.594;9.928;2023-12-14T05:45:01;2.30;;;1.88;;
5257;SDS011;2651;51.594;9.928;2023-12-14T05:46:22;2.08;;;1.98;;
5257;SDS011;2651;51.594;9.928;2023-12-14T05:47:30;2.60;;;2.40;;
5257;SDS011;2651;51.594;9.928;2023-12-14T05:48:39;1.85;;;1.63;;
5257;SDS011;2651;51.594;9.928;2023-12-14T05:49:42;1.88;;;1.77;;
5257;SDS011;2651;51.594;9.928;2023-12-14T05:50:44;1.75;;;1.65;;
5257;SDS011;2651;51.594;9.928;2023-12-14T05:51:46;2.22;;;2.00;;
5257;SDS011;2651;51.594;9.928;2023-12-14T05:52:48;1.95;;;1.85;;
5257;SDS011;2651;51.594;9.928;2023-12-14T05:53:50;3.25;;;2.50;;
5257;SDS011;2651;51.594;9.928;2023-12-14T05:54:51;4.28;;;3.35;;
5257;SDS011;2651;51.594;9.928;2023-12-14T05:55:53;3.60;;;3.30;;
5257;SDS011;2651;51.594;9.928;2023-12-14T05:56:55;3.30;;;3.00;;
5257;SDS011;2651;51.594;9.928;2023-12-14T05:57:57;1.92;;;1.83;;
5257;SDS011;2651;51.594;9.928;2023-12-14T05:58:58;3.60;;;3.28;;
5257;SDS011;2651;51.594;9.928;2023-12-14T06:00:00;3.00;;;2.75;;
5257;SDS011;2651;51.594;9.928;2023-12-14T06:01:02;2.60;;;2.40;;
5257;SDS011;2651;51.594;9.928;2023-12-14T06:02:07;2.92;;;2.72;;
5257;SDS011;2651;51.594;9.928;2023-12-14T06:03:09;2.55;;;2.35;;
5257;SDS011;2651;51.594;9.928;2023-12-14T06:04:11;2.22;;;2.13;;
5257;SDS011;2651;51.594;9.928;2023-12-14T06:05:13;2.90;;;2.50;;
5257;SDS011;2651;51.594;9.928;2023-12-14T06:06:15;2.50;;;2.30;;
5257;SDS011;2651;51.594;9.928;2023-12-14T06:07:17;2.88;;;2.20;;
5257;SDS011;2651;51.594;9.928;2023-12-14T06:08:19;2.20;;;2.00;;
5257;SDS011;2651;51.594;9.928;2023-12-14T06:09:24;2.08;;;1.90;;
5257;SDS011;2651;51.594;9.928;2023-12-14T06:10:35;2.95;;;2.15;;
5257;SDS011;2651;51.594;9.928;2023-12-14T06:11:38;3.05;;;2.42;;
5257;SDS011;2651;51.594;9.928;2023-12-14T06:12:41;2.72;;;2.50;;
5257;SDS011;2651;51.594;9.928;2023-12-14T06:13:47;1.98;;;1.88;;
5257;SDS011;2651;51.594;9.928;2023-12-14T06:14:52;3.25;;;2.15;;
5257;SDS011;2651;51.594;9.928;2023-12-14T06:15:53;2.08;;;1.92;;
5257;SDS011;2651;51.594;9.928;2023-12-14T06:16:55;3.83;;;2.00;;
5257;SDS011;2651;51.594;9.928;2023-12-14T06:18:03;3.15;;;2.47;;
5257;SDS011;2651;51.594;9.928;2023-12-14T06:19:06;2.70;;;2.50;;
5257;SDS011;2651;51.594;9.928;2023-12-14T06:20:08;2.05;;;1.95;;
5257;SDS011;2651;51.594;9.928;2023-12-14T06:21:11;2.20;;;2.00;;
5257;SDS011;2651;51.594;9.928;2023-12-14T06:22:13;2.38;;;2.17;;
5257;SDS011;2651;51.594;9.928;2023-12-14T06:23:15;1.80;;;1.70;;
5257;SDS011;2651;51.594;9.928;2023-12-14T06:24:17;2.78;;;2.58;;
5257;SDS011;2651;51.594;9.928;2023-12-14T06:25:18;2.40;;;2.05;;
5257;SDS011;2651;51.594;9.928;2023-12-14T06:26:20;2.53;;;2.35;;
5257;SDS011;2651;51.594;9.928;2023-12-14T06:27:24;2.35;;;2.15;;
5257;SDS011;2651;51.594;9.928;2023-12-14T06:28:27;2.35;;;2.15;;